Time;durP1;ratioP1;P1;durP2;ratioP2;P2;SDS_P1;SDS_P2;PMS_P1;PMS_P2;Temp;Humidity;BMP_temperature;BMP_pressure;BME280_temperature;BME280_humidity;BME280_pressure;Samples;Min_cycle;Max_cycle;Signal;HPM_P1;HPM_P2
2023/04/22 00:00:27;;;;;;;5.75;3.60;;;;;;;8.30;100.00;96641.91;5026165;28;20100;-62
2023/04/22 00:02:55;;;;;;;7.68;3.03;;;;;;;8.03;100.00;96643.53;5032160;28;21162;-62
2023/04/22 00:05:21;;;;;;;5.35;3.15;;;;;;;7.83;100.00;96651.38;5029324;28;20030;-61
2023/04/22 00:07:48;;;;;;;5.25;3.45;;;;;;;7.86;100.00;96643.63;5025587;28;20061;-62
2023/04/22 00:10:15;;;;;;;4.68;3.35;;;;;;;7.93;100.00;96654.22;5027037;28;20041;-61
2023/04/22 00:12:41;;;;;;;6.72;3.70;;;;;;;8.04;100.00;96652.44;5026363;28;20044;-62
2023/04/22 00:15:08;;;;;;;6.65;3.60;;;;;;;8.08;100.00;96637.41;5025189;28;20516;-61
2023/04/22 00:17:35;;;;;;;5.93;3.40;;;;;;;8.14;100.00;96647.16;5025707;28;20128;-61
2023/04/22 00:20:02;;;;;;;5.45;3.08;;;;;;;8.04;100.00;96649.75;5028592;28;20116;-62
2023/04/22 00:22:29;;;;;;;5.68;3.42;;;;;;;8.30;100.00;96642.72;5030585;28;20128;-61
2023/04/22 00:24:55;;;;;;;5.05;3.17;;;;;;;8.30;100.00;96641.91;5022454;28;20053;-61
2023/04/22 00:27:22;;;;;;;5.70;3.13;;;;;;;8.16;100.00;96641.50;5025027;28;20125;-61
2023/04/22 00:29:48;;;;;;;5.95;3.03;;;;;;;8.14;100.00;96641.75;5028250;28;20580;-62
2023/04/22 00:32:15;;;;;;;5.18;3.10;;;;;;;8.05;100.00;96637.91;5027879;28;20041;-62
2023/04/22 00:34:41;;;;;;;6.68;3.22;;;;;;;7.79;100.00;96641.13;5025294;28;20037;-61
2023/04/22 00:37:08;;;;;;;4.88;3.08;;;;;;;7.72;100.00;96639.69;5023369;28;20043;-61
2023/04/22 00:39:37;;;;;;;6.00;2.58;;;;;;;7.77;100.00;96637.88;5025630;28;20084;-62
2023/04/22 00:42:06;;;;;;;5.57;3.80;;;;;;;7.82;100.00;96637.13;5027324;28;20049;-61
2023/04/22 00:44:34;;;;;;;6.40;4.07;;;;;;;7.79;100.00;96645.69;5029132;28;20104;-61
2023/04/22 00:47:01;;;;;;;5.93;3.20;;;;;;;7.81;100.00;96646.25;5022226;28;20116;-62
2023/04/22 00:49:28;;;;;;;6.20;3.47;;;;;;;7.86;100.00;96638.25;5029635;28;20068;-61
2023/04/22 00:51:54;;;;;;;5.55;3.83;;;;;;;7.93;100.00;96641.53;5031562;28;20051;-61
2023/04/22 00:54:21;;;;;;;5.15;3.30;;;;;;;8.05;100.00;96632.50;5027475;28;20038;-61
2023/04/22 00:56:47;;;;;;;6.68;3.30;;;;;;;7.90;100.00;96633.97;5029975;28;20045;-61
2023/04/22 00:59:14;;;;;;;5.93;3.08;;;;;;;7.94;100.00;96635.09;5030819;28;20114;-61
2023/04/22 01:01:41;;;;;;;5.80;3.33;;;;;;;7.95;100.00;96622.41;5025627;28;20068;-62
2023/04/22 01:04:11;;;;;;;8.37;3.33;;;;;;;7.96;100.00;96631.34;5029582;28;20314;-61
2023/04/22 01:06:39;;;;;;;6.25;3.75;;;;;;;7.90;100.00;96628.59;5033822;28;20068;-61
2023/04/22 01:09:06;;;;;;;5.57;3.35;;;;;;;7.83;100.00;96630.66;5023908;28;20037;-62
2023/04/22 01:11:35;;;;;;;5.65;3.15;;;;;;;7.66;100.00;96628.84;5024898;28;20132;-61
2023/04/22 01:14:05;;;;;;;5.38;3.00;;;;;;;7.67;100.00;96635.06;5023976;28;20755;-61
2023/04/22 01:16:34;;;;;;;6.00;3.30;;;;;;;7.77;100.00;96637.03;5025197;28;20108;-61
2023/04/22 01:19:01;;;;;;;5.53;2.97;;;;;;;7.80;100.00;96631.97;5021161;28;20485;-61
2023/04/22 01:21:28;;;;;;;5.10;3.08;;;;;;;8.04;100.00;96620.09;5027705;28;20077;-62
2023/04/22 01:23:55;;;;;;;4.45;2.58;;;;;;;8.15;100.00;96621.81;5027172;28;20050;-61
2023/04/22 01:26:21;;;;;;;7.43;3.13;;;;;;;8.15;100.00;96621.81;5023884;28;20055;-61
2023/04/22 01:28:48;;;;;;;4.95;3.22;;;;;;;8.05;100.00;96621.72;5028593;28;20140;-62
2023/04/22 01:31:15;;;;;;;5.28;3.10;;;;;;;7.92;100.00;96628.31;5027602;28;20049;-61
2023/04/22 01:33:43;;;;;;;6.47;3.20;;;;;;;7.88;100.00;96633.41;5028607;28;20044;-61
2023/04/22 01:36:10;;;;;;;5.15;2.85;;;;;;;8.02;100.00;96631.13;5023687;28;20049;-61
2023/04/22 01:38:39;;;;;;;5.28;2.53;;;;;;;8.02;100.00;96624.91;5024202;28;20519;-62
2023/04/22 01:41:06;;;;;;;7.50;3.42;;;;;;;8.09;100.00;96620.13;5028466;28;20052;-62
2023/04/22 01:43:33;;;;;;;4.15;2.67;;;;;;;8.00;100.00;96618.97;5027754;28;20614;-61
2023/04/22 01:46:01;;;;;;;5.28;3.03;;;;;;;7.88;100.00;96621.78;5026625;28;20148;-62
2023/04/22 01:48:28;;;;;;;6.60;2.80;;;;;;;7.82;100.00;96629.03;5027179;28;20041;-61
2023/04/22 01:50:54;;;;;;;6.25;2.60;;;;;;;7.79;100.00;96627.66;5026743;28;20041;-61
2023/04/22 01:53:35;;;;;;;4.90;2.92;;;;;;;7.81;100.00;96628.22;5024484;28;20076;-62
2023/04/22 01:56:01;;;;;;;4.85;3.13;;;;;;;7.91;100.00;96632.06;5017993;28;20683;-61
2023/04/22 01:58:29;;;;;;;4.55;2.80;;;;;;;7.98;100.00;96624.63;5028732;28;20520;-61
2023/04/22 02:00:56;;;;;;;4.72;2.65;;;;;;;7.97;100.00;96623.00;5027109;28;20050;-62
2023/04/22 02:03:22;;;;;;;4.88;3.17;;;;;;;7.97;100.00;96624.88;5023973;28;20040;-61
2023/04/22 02:05:49;;;;;;;7.22;3.33;;;;;;;7.97;100.00;96627.56;5024286;28;20037;-62
2023/04/22 02:08:17;;;;;;;7.30;3.38;;;;;;;7.98;100.00;96623.78;5027339;28;20088;-60
2023/04/22 02:10:43;;;;;;;6.78;3.08;;;;;;;7.97;100.00;96628.38;5026827;28;20728;-61
2023/04/22 02:13:10;;;;;;;5.03;3.10;;;;;;;8.02;100.00;96623.03;5021488;28;20042;-61
2023/04/22 02:15:38;;;;;;;5.97;2.70;;;;;;;8.09;100.00;96622.84;5024663;28;20049;-61
2023/04/22 02:18:05;;;;;;;4.47;2.80;;;;;;;8.11;100.00;96620.69;5028108;28;20116;-61
2023/04/22 02:20:32;;;;;;;4.57;2.72;;;;;;;8.17;100.00;96624.25;5021644;28;20041;-61
2023/04/22 02:22:59;;;;;;;5.18;2.78;;;;;;;8.17;100.00;96624.25;5022915;28;20091;-61
2023/04/22 02:25:27;;;;;;;5.43;2.80;;;;;;;8.14;100.00;96619.38;5025949;28;20463;-61
2023/04/22 02:27:53;;;;;;;4.68;2.60;;;;;;;8.14;100.00;96622.88;5021884;28;20045;-61
2023/04/22 02:30:20;;;;;;;5.28;2.80;;;;;;;8.16;100.00;96630.72;5022827;28;20061;-61
2023/04/22 02:32:47;;;;;;;4.53;2.50;;;;;;;8.16;100.00;96620.75;5017604;28;20053;-61
2023/04/22 02:35:13;;;;;;;4.55;2.30;;;;;;;8.17;100.00;96616.16;5021790;28;20052;-61
2023/04/22 02:37:40;;;;;;;4.60;2.50;;;;;;;8.15;100.00;96624.50;5020026;28;20045;-60
2023/04/22 02:40:07;;;;;;;3.97;2.35;;;;;;;8.10;100.00;96624.47;5021629;28;20045;-60
2023/04/22 02:42:34;;;;;;;4.72;2.92;;;;;;;8.06;100.00;96628.72;5025361;28;20122;-61
2023/04/22 02:45:00;;;;;;;4.72;2.50;;;;;;;8.04;100.00;96622.78;5017949;28;20124;-62
2023/04/22 02:47:27;;;;;;;4.70;2.70;;;;;;;8.08;100.00;96626.59;5020883;28;20033;-61
2023/04/22 02:49:54;;;;;;;5.05;2.83;;;;;;;8.13;100.00;96617.75;5025996;28;20727;-62
2023/04/22 02:52:20;;;;;;;6.28;2.42;;;;;;;8.15;100.00;96616.41;5022860;28;20068;-61
2023/04/22 02:54:47;;;;;;;5.45;2.45;;;;;;;8.16;100.00;96614.53;5020682;28;20034;-61
2023/04/22 02:57:13;;;;;;;6.03;2.95;;;;;;;8.06;100.00;96615.25;5021402;28;20126;-61
2023/04/22 02:59:40;;;;;;;5.97;3.03;;;;;;;7.98;100.00;96613.00;5019769;28;20642;-61
2023/04/22 03:02:09;;;;;;;5.68;3.17;;;;;;;8.01;100.00;96609.81;5020511;28;20060;-61
2023/04/22 03:04:48;;;;;;;7.78;2.88;;;;;;;8.06;100.00;96609.84;5021545;28;20053;-61
2023/04/22 03:07:14;;;;;;;5.88;2.40;;;;;;;8.23;100.00;96606.25;5022823;28;20048;-61
2023/04/22 03:09:41;;;;;;;4.53;2.53;;;;;;;8.15;100.00;96611.03;5022840;28;20044;-61
2023/04/22 03:12:07;;;;;;;5.65;2.95;;;;;;;8.04;100.00;96606.63;5026344;28;20088;-61
2023/04/22 03:14:34;;;;;;;5.05;2.90;;;;;;;8.02;100.00;96606.03;5024880;28;20049;-60
2023/04/22 03:17:01;;;;;;;6.55;3.03;;;;;;;8.00;100.00;96608.19;5025644;28;20045;-61
2023/04/22 03:19:28;;;;;;;4.60;2.60;;;;;;;8.06;100.00;96613.38;5024366;28;20431;-61
2023/04/22 03:21:55;;;;;;;5.47;2.40;;;;;;;8.19;100.00;96617.53;5023101;28;20414;-61
2023/04/22 03:24:22;;;;;;;5.47;2.70;;;;;;;8.23;100.00;96622.44;5021440;28;20049;-62
2023/04/22 03:26:50;;;;;;;8.32;4.15;;;;;;;8.16;100.00;96623.47;5021983;28;20099;-62
2023/04/22 03:29:17;;;;;;;7.43;3.28;;;;;;;8.08;100.00;96632.00;5019387;28;20041;-61
2023/04/22 03:31:44;;;;;;;5.63;3.67;;;;;;;8.01;100.00;96632.19;5032055;28;20037;-61
2023/04/22 03:34:10;;;;;;;5.90;3.63;;;;;;;7.96;100.00;96640.22;5029748;28;20041;-61
2023/04/22 03:36:37;;;;;;;7.20;3.50;;;;;;;7.92;100.00;96644.47;5028366;28;20126;-61
2023/04/22 03:39:04;;;;;;;7.95;3.45;;;;;;;7.91;100.00;96640.16;5023117;28;20057;-61
2023/04/22 03:41:32;;;;;;;6.45;3.05;;;;;;;7.86;100.00;96638.25;5027818;28;20132;-61
2023/04/22 03:43:59;;;;;;;5.78;3.08;;;;;;;7.81;100.00;96644.38;5025510;28;20048;-61
2023/04/22 03:46:28;;;;;;;7.10;3.47;;;;;;;7.70;100.00;96639.94;5020416;28;20045;-62
2023/04/22 03:49:02;;;;;;;6.00;3.28;;;;;;;7.51;100.00;96636.72;5024428;28;20045;-61
2023/04/22 03:51:32;;;;;;;8.10;3.88;;;;;;;7.39;100.00;96632.31;5025147;28;20071;-61
2023/04/22 03:54:02;;;;;;;6.53;3.38;;;;;;;7.34;100.00;96634.09;5021912;28;20389;-61
2023/04/22 03:56:32;;;;;;;7.68;3.20;;;;;;;7.25;100.00;96633.72;5024435;28;20029;-61
2023/04/22 03:59:00;;;;;;;5.00;3.10;;;;;;;7.09;100.00;96630.81;5024979;28;20033;-61
2023/04/22 04:01:26;;;;;;;6.07;3.28;;;;;;;7.05;100.00;96629.69;5026562;28;20041;-61
2023/04/22 04:03:57;;;;;;;4.65;2.92;;;;;;;7.00;100.00;96630.41;5024286;28;20523;-61
2023/04/22 04:06:30;;;;;;;4.50;2.65;;;;;;;7.00;100.00;96637.66;5024955;28;20046;-62
2023/04/22 04:08:57;;;;;;;4.85;2.90;;;;;;;6.92;100.00;96625.44;5025192;28;20060;-61
2023/04/22 04:11:24;;;;;;;4.63;2.90;;;;;;;6.82;100.00;96634.19;5023815;28;20079;-61
2023/04/22 04:13:51;;;;;;;5.05;2.80;;;;;;;6.79;100.00;96625.78;5030527;28;20543;-62
2023/04/22 04:16:24;;;;;;;5.10;3.05;;;;;;;6.74;100.00;96629.22;5027562;28;20037;-61
2023/04/22 04:18:58;;;;;;;4.68;2.80;;;;;;;6.67;100.00;96637.44;5003326;28;20049;-61
2023/04/22 04:21:25;;;;;;;5.22;2.60;;;;;;;6.61;100.00;96639.28;5034420;28;20056;-61
2023/04/22 04:23:54;;;;;;;5.53;3.08;;;;;;;6.66;100.00;96640.41;5032050;28;20048;-61
2023/04/22 04:26:26;;;;;;;9.67;4.00;;;;;;;6.75;100.00;96639.72;5027086;28;20033;-61
2023/04/22 04:29:00;;;;;;;6.50;2.88;;;;;;;6.79;100.00;96644.63;5025567;28;20096;-61
2023/04/22 04:31:27;;;;;;;5.40;3.25;;;;;;;6.77;100.00;96628.72;5025885;28;20045;-62
2023/04/22 04:33:56;;;;;;;6.13;3.00;;;;;;;6.57;100.00;96632.75;5023983;28;20053;-61
2023/04/22 04:36:26;;;;;;;4.68;2.50;;;;;;;6.62;100.00;96634.69;5022601;28;20437;-61
2023/04/22 04:38:53;;;;;;;5.35;2.92;;;;;;;6.67;100.00;96637.44;5023684;28;20048;-62
2023/04/22 04:41:22;;;;;;;6.80;3.22;;;;;;;6.50;100.00;96648.22;5026913;28;20584;-61
2023/04/22 04:43:49;;;;;;;4.35;2.75;;;;;;;6.31;100.00;96643.06;5027749;28;20079;-61
2023/04/22 04:46:22;;;;;;;8.70;3.97;;;;;;;6.32;100.00;96650.06;5032210;28;20037;-61
2023/04/22 04:48:50;;;;;;;6.53;3.03;;;;;;;6.33;100.00;96638.25;5031073;28;20621;-61
2023/04/22 04:51:17;;;;;;;6.07;3.60;;;;;;;6.53;100.00;96646.91;5026703;28;20059;-61
2023/04/22 04:53:55;;;;;;;6.32;2.92;;;;;;;6.49;100.00;96642.00;5030827;28;20045;-61
2023/04/22 04:56:24;;;;;;;7.43;3.30;;;;;;;6.52;100.00;96643.41;5025504;28;20194;-61
2023/04/22 04:58:50;;;;;;;6.95;3.40;;;;;;;6.55;100.00;96642.09;5025025;28;20540;-61
2023/04/22 05:01:25;;;;;;;6.38;3.17;;;;;;;6.53;100.00;96636.16;5029234;28;20049;-62
2023/04/22 05:03:55;;;;;;;5.45;3.17;;;;;;;6.54;100.00;96629.72;5027313;28;20440;-61
2023/04/22 05:06:22;;;;;;;8.48;3.10;;;;;;;6.52;100.00;96629.16;5022653;28;20045;-61
2023/04/22 05:08:53;;;;;;;;;;;;;;;6.40;100.00;96632.72;5022415;28;20045;-62
2023/04/22 05:11:20;;;;;;;4.35;2.72;;;;;;;6.45;100.00;96635.50;5018685;28;19971;-61
2023/04/22 05:13:49;;;;;;;7.18;3.03;;;;;;;6.52;100.00;96639.91;5029829;28;20060;-61
2023/04/22 05:16:22;;;;;;;5.28;3.20;;;;;;;6.51;100.00;96639.09;5027391;28;20037;-61
2023/04/22 05:18:49;;;;;;;5.05;2.75;;;;;;;6.44;100.00;96630.34;5031302;28;20045;-61
2023/04/22 05:21:15;;;;;;;6.03;3.25;;;;;;;6.53;100.00;96636.16;5023909;28;20513;-61
2023/04/22 05:23:43;;;;;;;5.47;3.25;;;;;;;6.66;100.00;96640.41;5029670;28;20048;-62
2023/04/22 05:26:10;;;;;;;5.90;3.20;;;;;;;6.70;100.00;96639.66;5026914;28;20057;-61
2023/04/22 05:28:39;;;;;;;4.50;3.13;;;;;;;6.86;100.00;96643.41;5025867;28;20111;-61
2023/04/22 05:31:06;;;;;;;8.63;3.67;;;;;;;7.17;100.00;96634.97;5024213;28;20086;-62
2023/04/22 05:33:33;;;;;;;7.00;4.05;;;;;;;7.43;100.00;96638.00;5024478;28;20045;-62
2023/04/22 05:36:00;;;;;;;6.05;3.58;;;;;;;7.65;100.00;96632.63;5021937;28;20040;-62
2023/04/22 05:38:27;;;;;;;5.90;3.55;;;;;;;7.80;100.00;96634.66;5021792;28;20045;-62
2023/04/22 05:40:54;;;;;;;6.32;3.85;;;;;;;8.02;100.00;96627.59;5026594;28;20045;-62
2023/04/22 05:43:21;;;;;;;6.70;3.60;;;;;;;8.18;100.00;96632.09;5025793;28;20050;-61
2023/04/22 05:45:55;;;;;;;6.22;3.78;;;;;;;8.37;100.00;96629.03;5019329;28;20045;-62
2023/04/22 05:48:21;;;;;;;6.18;3.63;;;;;;;8.56;100.00;96620.59;5024249;28;20041;-61
2023/04/22 05:51:01;;;;;;;7.57;3.53;;;;;;;8.69;100.00;96630.94;5025695;28;20053;-61
2023/04/22 05:53:28;;;;;;;6.05;3.88;;;;;;;8.89;100.00;96628.66;5025476;28;20175;-62
2023/04/22 05:55:58;;;;;;;6.30;4.07;;;;;;;9.01;100.00;96631.16;5025146;28;20060;-62
2023/04/22 05:58:24;;;;;;;6.10;4.18;;;;;;;9.24;100.00;96627.25;5015400;28;20049;-62
2023/04/22 06:00:58;;;;;;;6.70;4.38;;;;;;;9.44;100.00;96631.94;5022161;28;20088;-61
2023/04/22 06:03:57;;;;;;;6.47;4.03;;;;;;;9.74;100.00;96637.75;5017832;28;20118;-62
2023/04/22 06:06:26;;;;;;;7.32;3.92;;;;;;;9.96;100.00;96642.97;5027758;28;20049;-61
2023/04/22 06:08:52;;;;;;;7.00;4.18;;;;;;;10.15;100.00;96637.06;5020831;28;20737;-62
2023/04/22 06:11:19;;;;;;;6.47;3.72;;;;;;;10.31;100.00;96642.53;5030355;28;20049;-61
2023/04/22 06:13:46;;;;;;;7.22;3.70;;;;;;;10.45;100.00;96637.41;5024240;28;20120;-61
2023/04/22 06:16:12;;;;;;;8.18;4.70;;;;;;;10.58;99.63;96633.38;5033082;28;20095;-61
2023/04/22 06:18:39;;;;;;;7.07;3.67;;;;;;;10.68;97.73;96633.34;5021401;28;20049;-61
2023/04/22 06:21:09;;;;;;;6.22;3.72;;;;;;;10.74;97.65;96640.41;5020530;28;20055;-61
2023/04/22 06:23:36;;;;;;;6.80;4.05;;;;;;;10.79;96.78;96643.09;5029605;28;20098;-60
2023/04/22 06:26:03;;;;;;;7.60;3.60;;;;;;;10.83;96.78;96646.06;5025766;28;20047;-60
2023/04/22 06:28:30;;;;;;;8.10;3.97;;;;;;;10.79;96.16;96647.69;5018949;28;20045;-61
2023/04/22 06:31:01;;;;;;;6.47;4.07;;;;;;;10.76;96.34;96650.97;5024603;28;20052;-61
2023/04/22 06:33:28;;;;;;;6.88;3.75;;;;;;;10.76;97.15;96646.34;5021099;28;20058;-60
2023/04/22 06:35:56;;;;;;;7.22;3.80;;;;;;;10.76;96.59;96640.94;5022315;28;20053;-61
2023/04/22 06:38:23;;;;;;;6.32;3.50;;;;;;;10.78;96.87;96643.38;5021592;28;20072;-61
2023/04/22 06:41:21;;;;;;;8.85;3.97;;;;;;;10.86;95.77;96642.00;4967563;28;20066;-61
2023/04/22 06:43:48;;;;;;;5.50;3.63;;;;;;;10.92;95.27;96649.06;5015689;28;20046;-61
2023/04/22 06:46:40;;;;;;;7.75;3.72;;;;;;;11.02;95.29;96645.53;5024180;28;20091;-61
2023/04/22 06:49:24;;;;;;;5.40;3.42;;;;;;;11.09;95.00;96647.97;5026990;28;20044;-61
2023/04/22 06:52:20;;;;;;;6.20;3.10;;;;;;;11.18;93.88;96643.59;5012128;28;20434;-61
2023/04/22 06:54:51;;;;;;;5.38;3.25;;;;;;;11.23;93.86;96645.47;5032151;28;20045;-61
2023/04/22 06:57:18;;;;;;;5.60;3.20;;;;;;;11.31;92.42;96648.47;5021870;28;20045;-61
2023/04/22 06:59:44;;;;;;;5.47;3.00;;;;;;;11.40;91.91;96639.75;5019994;28;20498;-61
2023/04/22 07:02:13;;;;;;;4.82;2.90;;;;;;;11.51;92.76;96641.38;5024319;28;20141;-61
2023/04/22 07:04:40;;;;;;;6.35;3.00;;;;;;;11.61;91.24;96637.78;5019473;28;20144;-61
2023/04/22 07:07:06;;;;;;;7.13;3.20;;;;;;;11.70;91.17;96629.91;5035158;28;20048;-61
2023/04/22 07:09:34;;;;;;;5.90;3.13;;;;;;;11.75;89.53;96629.88;5031425;28;20060;-61
2023/04/22 07:12:01;;;;;;;5.53;2.72;;;;;;;11.78;87.20;96629.31;5023492;28;20728;-61
2023/04/22 07:14:29;;;;;;;5.57;2.58;;;;;;;11.87;87.40;96631.47;5021410;28;20089;-61
2023/04/22 07:16:55;;;;;;;5.45;2.92;;;;;;;11.93;87.78;96624.91;5032425;28;20045;-61
2023/04/22 07:19:22;;;;;;;6.97;3.20;;;;;;;11.94;88.17;96619.22;5034399;28;20041;-61
2023/04/22 07:21:49;;;;;;;6.70;3.33;;;;;;;12.00;87.72;96621.88;5029961;28;20049;-61
2023/04/22 07:24:15;;;;;;;6.28;3.45;;;;;;;12.07;86.70;96619.72;5027021;28;20045;-61
2023/04/22 07:26:43;;;;;;;4.60;2.80;;;;;;;12.15;86.88;96626.44;5033174;28;20045;-61
2023/04/22 07:29:11;;;;;;;6.63;3.28;;;;;;;12.25;86.60;96620.97;5029388;28;20049;-61
2023/04/22 07:31:38;;;;;;;5.22;2.85;;;;;;;12.34;85.37;96627.41;5026775;28;20049;-61
2023/04/22 07:34:04;;;;;;;7.43;3.28;;;;;;;12.36;84.88;96622.50;5023615;28;20048;-61
2023/04/22 07:36:32;;;;;;;7.95;3.33;;;;;;;12.41;83.12;96631.72;5026413;28;20045;-61
2023/04/22 07:38:58;;;;;;;5.13;2.95;;;;;;;12.43;83.74;96629.53;5026672;28;20412;-61
2023/04/22 07:41:25;;;;;;;6.38;2.72;;;;;;;12.46;82.72;96631.69;5033768;28;20068;-61
2023/04/22 07:43:51;;;;;;;4.35;2.17;;;;;;;12.57;83.08;96627.78;5029268;28;20042;-60
2023/04/22 07:46:18;;;;;;;4.65;2.60;;;;;;;12.61;83.64;96628.84;5026682;28;20535;-61
2023/04/22 07:48:44;;;;;;;4.25;2.72;;;;;;;12.73;82.85;96641.25;5021585;28;20130;-61
2023/04/22 07:51:11;;;;;;;4.65;2.78;;;;;;;12.77;83.29;96645.03;5026463;28;20531;-60
2023/04/22 07:53:38;;;;;;;4.82;2.65;;;;;;;12.83;83.82;96646.59;5025403;28;20398;-61
2023/04/22 07:56:04;;;;;;;4.88;2.20;;;;;;;12.80;83.47;96643.66;5027966;28;20057;-61
2023/04/22 07:58:31;;;;;;;5.72;2.50;;;;;;;12.82;82.87;96642.28;5026274;28;20059;-61
2023/04/22 08:00:57;;;;;;;5.13;2.58;;;;;;;12.82;83.21;96644.16;5031468;28;20056;-62
2023/04/22 08:03:23;;;;;;;6.25;2.72;;;;;;;12.82;83.70;96649.59;5026501;28;20037;-61
2023/04/22 08:05:50;;;;;;;3.78;2.13;;;;;;;12.84;82.50;96650.97;5023877;28;20034;-61
2023/04/22 08:08:17;;;;;;;5.10;2.00;;;;;;;12.88;81.40;96637.59;5024760;28;20061;-61
2023/04/22 08:10:43;;;;;;;7.65;3.15;;;;;;;12.96;81.58;96641.59;5029192;28;20526;-62
2023/04/22 08:13:10;;;;;;;3.55;2.10;;;;;;;13.09;80.78;96640.16;5031251;28;20070;-61
2023/04/22 08:15:36;;;;;;;3.55;1.75;;;;;;;13.35;80.37;96639.88;5034165;28;20045;-61
2023/04/22 08:18:03;;;;;;;3.85;2.00;;;;;;;13.67;78.58;96637.66;5029046;28;20041;-62
2023/04/22 08:20:29;;;;;;;3.97;1.90;;;;;;;13.82;75.46;96640.19;5027071;28;20060;-61
2023/04/22 08:22:59;;;;;;;3.15;1.73;;;;;;;14.06;73.67;96650.25;5028393;28;20124;-61
2023/04/22 08:25:26;;;;;;;4.50;1.70;;;;;;;14.24;71.80;96636.94;5024222;28;20041;-62
2023/04/22 08:27:53;;;;;;;3.13;1.52;;;;;;;14.35;70.66;96632.97;5020476;28;20037;-62
2023/04/22 08:30:19;;;;;;;3.60;1.45;;;;;;;14.45;69.11;96637.47;5024472;28;20049;-61
2023/04/22 08:32:46;;;;;;;2.58;1.40;;;;;;;14.57;67.25;96632.34;5032829;28;20553;-61
2023/04/22 08:35:13;;;;;;;2.22;1.20;;;;;;;14.80;65.97;96631.75;5026527;28;20053;-62
2023/04/22 08:37:40;;;;;;;3.10;1.42;;;;;;;14.83;66.04;96631.16;5032404;28;20552;-61
2023/04/22 08:40:07;;;;;;;4.13;1.20;;;;;;;15.05;68.49;96621.53;5029604;28;20049;-61
2023/04/22 08:42:34;;;;;;;2.88;1.13;;;;;;;15.19;63.17;96624.28;5030532;28;20652;-62
2023/04/22 08:45:03;;;;;;;4.10;1.20;;;;;;;15.34;62.95;96623.19;5024228;28;20072;-63
2023/04/22 08:47:34;;;;;;;3.97;1.15;;;;;;;15.50;61.02;96625.63;5027867;28;20413;-62
2023/04/22 08:50:02;;;;;;;1.65;0.90;;;;;;;15.64;61.01;96625.63;5019677;28;20116;-63
2023/04/22 08:52:30;;;;;;;3.97;1.30;;;;;;;15.75;57.08;96621.59;5024260;28;20049;-63
2023/04/22 08:54:56;;;;;;;2.28;1.10;;;;;;;15.86;56.82;96622.19;5025333;28;20103;-62
2023/04/22 08:57:23;;;;;;;2.72;1.33;;;;;;;16.05;56.93;96622.09;5020820;28;20069;-62
2023/04/22 08:59:50;;;;;;;2.70;1.20;;;;;;;16.22;54.55;96615.97;5025031;28;20041;-62
2023/04/22 09:02:19;;;;;;;2.65;1.20;;;;;;;16.52;55.29;96621.06;5023441;28;20599;-62
2023/04/22 09:04:48;;;;;;;2.35;1.10;;;;;;;16.72;54.36;96621.66;5026483;28;20052;-62
2023/04/22 09:07:23;;;;;;;1.95;1.00;;;;;;;16.77;52.04;96618.81;5020550;28;20114;-62
2023/04/22 09:09:51;;;;;;;2.00;0.95;;;;;;;16.72;52.11;96619.75;5028102;28;20047;-61
2023/04/22 09:12:18;;;;;;;2.35;1.15;;;;;;;16.76;51.06;96615.28;5027069;28;20045;-61
2023/04/22 09:14:44;;;;;;;2.75;1.02;;;;;;;16.88;51.62;96613.91;5023677;28;20079;-61
2023/04/22 09:17:15;;;;;;;2.53;1.30;;;;;;;16.85;51.45;96609.06;5021979;28;20045;-60
2023/04/22 09:19:42;;;;;;;1.90;1.10;;;;;;;16.89;50.35;96610.84;5023600;28;20060;-61
2023/04/22 09:22:14;;;;;;;2.10;1.20;;;;;;;16.96;50.08;96602.22;5016843;28;20501;-61
2023/04/22 09:24:50;;;;;;;2.42;0.98;;;;;;;17.09;50.06;96611.47;5022402;28;20793;-62
2023/04/22 09:27:17;;;;;;;2.65;1.10;;;;;;;17.05;48.56;96607.75;5022693;28;20120;-61
2023/04/22 09:29:51;;;;;;;1.73;1.00;;;;;;;17.11;48.93;96605.69;5026491;28;20457;-62
2023/04/22 09:32:18;;;;;;;2.72;1.30;;;;;;;17.31;50.67;96606.28;5024548;28;20053;-62
2023/04/22 09:34:53;;;;;;;2.75;1.30;;;;;;;17.61;49.84;96603.81;5033431;28;20055;-62
2023/04/22 09:37:23;;;;;;;3.15;1.58;;;;;;;17.88;53.14;96594.53;5028499;28;20065;-62
2023/04/22 09:39:51;;;;;;;2.13;1.30;;;;;;;18.06;50.62;96600.84;5032192;28;20140;-60
2023/04/22 09:42:19;;;;;;;2.15;0.88;;;;;;;18.09;50.17;96591.22;5019272;28;20076;-63
2023/04/22 09:44:48;;;;;;;2.40;0.90;;;;;;;18.17;51.31;96600.59;5027441;28;20152;-62
2023/04/22 09:47:14;;;;;;;2.78;1.10;;;;;;;18.19;51.41;96590.91;5023032;28;20120;-62
2023/04/22 09:49:45;;;;;;;2.28;1.10;;;;;;;18.28;52.10;96588.16;5030582;28;20041;-62
2023/04/22 09:52:23;;;;;;;2.05;1.08;;;;;;;18.40;53.41;96589.47;5028135;28;20103;-62
2023/04/22 09:54:50;;;;;;;3.40;1.92;;;;;;;18.49;56.14;96581.22;5022003;28;20091;-62
2023/04/22 09:57:18;;;;;;;3.97;1.60;;;;;;;18.54;55.62;96581.88;5023252;28;20038;-62
2023/04/22 09:59:44;;;;;;;2.17;1.17;;;;;;;18.59;54.23;96578.16;5026721;28;20107;-61
2023/04/22 10:02:11;;;;;;;6.28;1.67;;;;;;;18.66;53.28;96573.00;5028236;28;20046;-60
2023/04/22 10:04:37;;;;;;;3.38;1.52;;;;;;;18.78;54.19;96582.50;5027642;28;20045;-60
2023/04/22 10:07:04;;;;;;;3.50;1.38;;;;;;;18.88;53.03;96567.63;5027718;28;20117;-60
2023/04/22 10:09:31;;;;;;;5.15;0.90;;;;;;;18.96;52.03;96573.09;5028345;28;20045;-60
2023/04/22 10:11:58;;;;;;;1.85;1.05;;;;;;;19.12;51.04;96561.63;5029185;28;20040;-60
2023/04/22 10:14:25;;;;;;;3.10;1.05;;;;;;;19.24;50.10;96569.97;5025144;28;20055;-61
2023/04/22 10:16:56;;;;;;;2.15;1.13;;;;;;;19.28;47.92;96574.81;5019541;28;20633;-60
2023/04/22 10:19:25;;;;;;;2.28;1.20;;;;;;;19.36;45.72;96574.75;5028196;28;20560;-61
2023/04/22 10:21:58;;;;;;;2.42;1.00;;;;;;;19.42;46.40;96567.16;5025666;28;20056;-59
2023/04/22 10:24:27;;;;;;;1.95;0.90;;;;;;;19.49;45.37;96570.19;5029645;28;20049;-60
2023/04/22 10:26:58;;;;;;;4.72;2.20;;;;;;;19.48;44.98;96570.50;5021762;28;20407;-61
2023/04/22 10:29:33;;;;;;;3.10;1.10;;;;;;;19.55;44.58;96573.56;5017376;28;20046;-60
2023/04/22 10:32:23;;;;;;;2.72;1.40;;;;;;;19.41;43.68;96564.72;5023560;28;20064;-60
2023/04/22 10:35:09;;;;;;;3.25;1.40;;;;;;;19.44;45.67;96559.41;5020459;28;20132;-60
2023/04/22 10:37:39;;;;;;;1.67;1.08;;;;;;;19.53;45.24;96551.09;5020456;28;20111;-60
2023/04/22 10:40:15;;;;;;;3.30;1.10;;;;;;;19.65;44.79;96541.38;5021958;28;20049;-60
2023/04/22 10:42:49;;;;;;;5.82;2.25;;;;;;;19.55;43.34;96550.78;5018479;28;20447;-60
2023/04/22 10:45:16;;;;;;;2.45;1.02;;;;;;;19.34;42.51;96549.59;5025359;28;20041;-62
2023/04/22 10:47:42;;;;;;;2.38;1.20;;;;;;;19.67;43.40;96545.38;5027412;28;20037;-62
2023/04/22 10:50:16;;;;;;;3.50;1.33;;;;;;;19.92;41.73;96552.97;5024158;28;20045;-63
2023/04/22 10:52:48;;;;;;;4.03;1.50;;;;;;;19.93;41.65;96552.66;5031549;28;20037;-61
2023/04/22 10:55:15;;;;;;;4.07;1.42;;;;;;;19.96;40.97;96541.00;5025792;28;20551;-63
2023/04/22 10:57:44;;;;;;;2.85;1.38;;;;;;;20.02;42.25;96547.91;5029053;28;20504;-62
2023/04/22 11:00:18;;;;;;;3.92;1.42;;;;;;;19.97;40.27;96539.06;5028435;28;20049;-62
2023/04/22 11:02:50;;;;;;;6.07;1.38;;;;;;;20.09;43.35;96544.63;5025507;28;20049;-62
2023/04/22 11:05:19;;;;;;;3.00;1.15;;;;;;;20.24;41.99;96547.94;5023593;28;20400;-60
2023/04/22 11:07:49;;;;;;;3.40;1.42;;;;;;;20.24;41.86;96542.44;5020692;28;20045;-59
2023/04/22 11:10:44;;;;;;;3.78;1.20;;;;;;;20.53;40.71;96538.78;5019327;28;20120;-59
2023/04/22 11:13:16;;;;;;;3.67;1.00;;;;;;;20.56;40.10;96548.28;5018209;28;20045;-58
2023/04/22 11:15:45;;;;;;;4.50;1.40;;;;;;;20.95;39.30;96547.28;5020659;28;20038;-61
2023/04/22 11:18:16;;;;;;;3.20;1.10;;;;;;;21.20;39.69;96537.13;5021956;28;20033;-61
2023/04/22 11:20:43;;;;;;;3.72;1.30;;;;;;;21.36;38.85;96541.94;5024301;28;20426;-61
2023/04/22 11:23:10;;;;;;;4.68;1.17;;;;;;;21.44;37.84;96539.09;5017024;28;20120;-60
2023/04/22 11:25:36;;;;;;;2.20;1.20;;;;;;;21.46;38.07;96537.94;5021460;28;20069;-60
2023/04/22 11:28:03;;;;;;;4.20;1.20;;;;;;;21.31;37.20;96537.50;5022261;28;20095;-59
2023/04/22 11:30:30;;;;;;;3.50;1.33;;;;;;;21.19;37.43;96532.75;5024383;28;20201;-61
2023/04/22 11:32:59;;;;;;;2.95;1.40;;;;;;;21.34;40.34;96538.75;5029476;28;20052;-59
2023/04/22 11:35:33;;;;;;;3.80;1.30;;;;;;;21.46;39.05;96537.94;5022095;28;20103;-60
2023/04/22 11:38:04;;;;;;;3.80;1.38;;;;;;;21.34;38.19;96541.50;5022353;28;20550;-60
2023/04/22 11:40:32;;;;;;;;;;;;;;;21.28;39.08;96536.22;5023252;28;20115;-60